Taiseimaru — JL6483 — position and weather

sailwx.info

Track history (hours):
 
Tides and Currents Weather Stations Pressure Air Temp Water Temp Dewpoint Dewpoint Depression Visibility Wind Speed Wind Dir Waves Ship Positions

Taiseimaru

Last reported at 2015-Aug-09 15:11 UTC. Time now 2015-Aug-31 02:32 UTC.
Position N 34°42' E 134°45'.
Warning: this ship's position is 21 days out of date.

Length 84 m; draft 4.7 m.

Type: Cargo ship. MMSI: 431500568.

Date/timePositionNaut miles runAvg speedWind from/ knotsBaromVisibWave heightAir tempDewpointWater temp
2015-Aug-09 15:11N 34°42' E 134°45'710.3
2015-Aug-09 14:32N 34°38' E 134°52'9 9.6
2015-Aug-09 13:33N 34°36' E 135°03'10 9.8
2015-Aug-09 12:33N 34°27' E 135°03'1111.4
2015-Aug-09 11:33N 34°15' E 134°60'1212.1
2015-Aug-09 10:32N 34°03' E 135°01'23510.2
2015-Aug-08 11:33N 35°05' E 139°36'1212.5
2015-Aug-08 10:33N 35°15' E 139°46'1111.1
2015-Aug-08 09:33N 35°26' E 139°45'5 4.8
2015-Aug-08 08:32N 35°31' E 139°45'0 0.0
2015-Aug-08 07:32N 35°31' E 139°45'0 0.0
2015-Aug-08 06:32N 35°31' E 139°45'0 0.0
2015-Aug-08 05:32N 35°31' E 139°45'0 0.0
2015-Aug-08 04:32N 35°31' E 139°45'0 0.0
2015-Aug-08 03:32N 35°31' E 139°45'0 0.0
2015-Aug-08 02:32N 35°31' E 139°45'0 0.0
2015-Aug-08 01:32N 35°31' E 139°45'0 0.0
2015-Aug-08 00:32N 35°31' E 139°45'0 0.0
2015-Aug-07 23:29N 35°31' E 139°45'0 0.0
2015-Aug-07 22:32N 35°31' E 139°45'0 0.0
2015-Aug-07 21:32N 35°31' E 139°45'0 0.0
2015-Aug-07 20:32N 35°31' E 139°45'0 0.0
2015-Aug-07 19:32N 35°31' E 139°45'0 0.0
2015-Aug-07 18:32N 35°31' E 139°45'0 0.0
2015-Aug-07 17:32N 35°31' E 139°45'0 0.0
2015-Aug-07 16:32N 35°31' E 139°45'0 0.0
2015-Aug-07 15:32N 35°31' E 139°45'0 0.0
2015-Aug-07 14:32N 35°31' E 139°45'0 0.0
2015-Aug-07 13:32N 35°31' E 139°45'0 0.0
2015-Aug-07 12:32N 35°31' E 139°45'0 0.0
2015-Aug-07 11:32N 35°31' E 139°45'0 0.0
2015-Aug-07 10:31N 35°31' E 139°45'0 0.0
2015-Aug-07 09:31N 35°31' E 139°45'0 0.0
2015-Aug-07 08:31N 35°31' E 139°45'0 0.0
2015-Aug-07 07:31N 35°31' E 139°45'0 0.0
2015-Aug-07 06:31N 35°31' E 139°45'0 0.0
2015-Aug-07 05:31N 35°31' E 139°45'0 0.0
2015-Aug-07 04:31N 35°31' E 139°45'0 0.0
2015-Aug-07 03:31N 35°31' E 139°45'0 0.0
2015-Aug-07 02:31N 35°31' E 139°45'0 0.0
2015-Aug-07 01:31N 35°31' E 139°45'2 2.3
2015-Aug-07 00:33N 35°30' E 139°48'6 5.8
2015-Aug-06 23:31N 35°24' E 139°45'0 0.1
2015-Aug-06 22:31N 35°24' E 139°45'0 0.0
2015-Aug-06 21:31N 35°24' E 139°45'0 0.1
2015-Aug-06 20:31N 35°24' E 139°45'0 0.0
2015-Aug-06 19:31N 35°24' E 139°45'0 0.0
2015-Aug-06 18:31N 35°24' E 139°45'0 0.0
2015-Aug-06 17:31N 35°24' E 139°45'0 0.0
2015-Aug-06 16:31N 35°24' E 139°45'0 0.0
2015-Aug-06 15:28N 35°24' E 139°45'0 0.3
2015-Aug-06 14:33N 35°24' E 139°45'1010.3
2015-Aug-06 13:33N 35°14' E 139°47'1212.4
2015-Aug-06 12:33N 35°02' E 139°44'10 9.0
2015-Aug-06 11:28N 34°53' E 139°49'1010.5
2015-Aug-06 10:30N 34°55' E 140°01'1112.0
2015-Aug-06 09:33N 35°01' E 140°13'1511.4
2015-Aug-06 08:13N 35°10' E 140°27'1910.7
2015-Aug-06 06:28N 35°25' E 140°42'1010.4
2015-Aug-06 05:28N 35°33' E 140°50'22 9.7
2015-Aug-06 03:11N 35°55' E 140°47'6 6.3
2015-Aug-06 02:11N 36°00' E 140°43'0 0.0
2015-Aug-06 01:22N 36°00' E 140°43'0 0.0
2015-Aug-06 00:30N 36°00' E 140°43'0 0.0
2015-Aug-05 23:27N 36°00' E 140°43'0 0.0
2015-Aug-05 22:25N 36°00' E 140°43'0 0.0
2015-Aug-05 21:21N 36°00' E 140°43'0 0.0
2015-Aug-05 20:33N 36°00' E 140°43'0 0.0
2015-Aug-05 19:29N 36°00' E 140°43'0 0.0
2015-Aug-05 17:07N 36°00' E 140°43'0 0.0
2015-Aug-05 16:34N 36°00' E 140°43'0 0.0
2015-Aug-05 15:24N 36°00' E 140°43'0 0.0
2015-Aug-05 14:32N 36°00' E 140°43'0 0.0
2015-Aug-05 11:06N 36°00' E 140°43'7 0.9
2015-Aug-05 03:23N 35°53' E 140°41'0 0.0
2015-Aug-04 23:13N 35°53' E 140°41'3 3.8
2015-Aug-04 22:33N 35°56' E 140°42'3 1.4
2015-Aug-04 20:08N 35°59' E 140°44'0 0.0
2015-Aug-04 19:23N 35°59' E 140°44'6 2.7
2015-Aug-04 17:06N 35°53' E 140°48'611.2
2015-Aug-04 16:33N 35°48' E 140°52'5710.8
2015-Aug-04 11:16N 35°01' E 140°13'1311.4
2015-Aug-04 10:09N 34°54' E 139°60'1211.1
2015-Aug-04 09:06N 34°55' E 139°46'611.4
2015-Aug-04 08:33N 35°00' E 139°42'1111.0
2015-Aug-04 07:33N 35°11' E 139°46'1010.1
2015-Aug-04 06:34N 35°21' E 139°42'4 3.7
2015-Aug-04 05:30N 35°24' E 139°40'0 0.0
2015-Aug-04 04:33N 35°24' E 139°40'0 0.0
2015-Aug-04 03:30N 35°24' E 139°40'0 0.0
2015-Aug-04 02:33N 35°24' E 139°40'0 0.0
2015-Aug-04 01:33N 35°24' E 139°40'0 0.0
2015-Aug-04 00:33N 35°24' E 139°40'0 0.0
2015-Aug-03 23:33N 35°24' E 139°40'0 0.2
2015-Aug-03 22:34N 35°24' E 139°40'4 3.4
2015-Aug-03 21:31N 35°22' E 139°44'0 0.0
2015-Aug-03 20:31N 35°22' E 139°44'0 0.0
2015-Aug-03 19:31N 35°22' E 139°44'0 0.1
2015-Aug-03 18:31N 35°22' E 139°44'0 0.0
2015-Aug-03 17:31N 35°22' E 139°44'0 0.1
2015-Aug-03 16:31N 35°22' E 139°44'0 0.0
2015-Aug-03 15:28N 35°22' E 139°44'0 0.1
2015-Aug-03 14:31N 35°22' E 139°44'0 0.1
2015-Aug-03 13:31N 35°22' E 139°44'0 0.1
2015-Aug-03 12:31N 35°22' E 139°44'0 0.0
2015-Aug-03 11:31N 35°22' E 139°44'0 0.0
2015-Aug-03 10:31N 35°22' E 139°44'0 0.1
2015-Aug-03 09:31N 35°22' E 139°44'0 0.0
2015-Aug-03 08:31N 35°22' E 139°44'0 0.0
2015-Aug-03 07:31N 35°22' E 139°44'0 0.0
2015-Aug-03 06:31N 35°22' E 139°44'0 0.0
2015-Aug-03 05:31N 35°22' E 139°44'0 0.0
2015-Aug-03 04:31N 35°22' E 139°44'0 0.1
2015-Aug-03 03:34N 35°22' E 139°44'0 0.0
2015-Aug-03 02:33N 35°22' E 139°44'0 0.0
2015-Aug-03 01:33N 35°22' E 139°44'0 0.0
2015-Aug-03 00:30N 35°22' E 139°44'0 0.0
2015-Aug-02 23:33N 35°22' E 139°44'0 0.0
2015-Aug-02 22:33N 35°22' E 139°44'0 0.1
2015-Aug-02 21:33N 35°22' E 139°44'0 0.0
2015-Aug-02 20:33N 35°22' E 139°44'0 0.0
2015-Aug-02 19:33N 35°22' E 139°44'0 0.0
2015-Aug-02 18:33N 35°22' E 139°44'0 0.0
2015-Aug-02 17:30N 35°22' E 139°44'0 0.1
2015-Aug-02 16:33N 35°22' E 139°44'0 0.1
2015-Aug-02 15:33N 35°22' E 139°44'0 0.0
2015-Aug-02 14:33N 35°22' E 139°44'0 0.0
2015-Aug-02 13:33N 35°22' E 139°44'0 0.1
2015-Aug-02 12:33N 35°22' E 139°44'0 0.0
2015-Aug-02 11:33N 35°22' E 139°44'0 0.0
2015-Aug-02 10:33N 35°22' E 139°44'0 0.1
2015-Aug-02 09:33N 35°22' E 139°44'0 0.0
2015-Aug-02 08:33N 35°22' E 139°44'0 0.0
2015-Aug-02 07:33N 35°22' E 139°44'0 0.0
2015-Aug-02 06:30N 35°22' E 139°44'0 0.1
2015-Aug-02 05:33N 35°22' E 139°44'0 0.0
2015-Aug-02 04:33N 35°22' E 139°44'0 0.1
2015-Aug-02 03:33N 35°22' E 139°44'0 0.0
2015-Aug-02 02:33N 35°22' E 139°44'0 0.1
2015-Aug-02 01:33N 35°22' E 139°44'0 0.0
2015-Aug-02 00:33N 35°22' E 139°44'0 0.0
2015-Aug-01 23:33N 35°22' E 139°44'0 0.0
2015-Aug-01 22:33N 35°22' E 139°44'0 0.1
2015-Aug-01 21:33N 35°22' E 139°44'0 0.0
2015-Aug-01 20:33N 35°22' E 139°44'0 0.0
2015-Aug-01 19:33N 35°22' E 139°44'0 0.0
2015-Aug-01 18:33N 35°22' E 139°44'0 0.0
2015-Aug-01 17:33N 35°22' E 139°44'8 7.9
2015-Aug-01 16:33N 35°15' E 139°47'1211.8
2015-Aug-01 15:33N 35°04' E 139°43'18 8.1
2015-Aug-01 13:21N 34°55' E 140°02'1011.9
2015-Aug-01 12:33N 35°00' E 140°12'1111.1
2015-Aug-01 11:33N 35°06' E 140°24'1110.9
2015-Aug-01 10:31N 35°15' E 140°32'1211.0
2015-Aug-01 09:27N 35°24' E 140°41'1010.9
2015-Aug-01 08:33N 35°32' E 140°48'1111.3
2015-Aug-01 07:33N 35°42' E 140°54'1210.6
2015-Aug-01 06:24N 35°53' E 140°48'6 3.0
2015-Aug-01 04:23N 35°58' E 140°44'3 0.4
2015-Jul-31 20:29N 35°56' E 140°41'4 4.1
2015-Jul-31 19:33N 35°59' E 140°42'0 0.3
2015-Jul-31 18:30N 35°60' E 140°42'0 0.0
2015-Jul-31 09:32N 35°60' E 140°42'0 0.0
2015-Jul-31 08:29N 35°60' E 140°42'0 0.0
2015-Jul-31 05:29N 35°60' E 140°42'0 0.0
2015-Jul-30 20:23N 35°60' E 140°42'0 0.0
2015-Jul-30 18:29N 35°60' E 140°42'8 8.9
2015-Jul-30 17:33N 36°07' E 140°47'1212.0
2015-Jul-30 16:34N 36°18' E 140°51'1211.8
2015-Jul-30 15:33N 36°30' E 140°56'  
Track history (hours):
 
Tides and Currents Weather Stations Pressure Air Temp Water Temp Dewpoint Dewpoint Depression Visibility Wind Speed Wind Dir Waves Ship Positions

Taiseimaru

Last reported at 2015-Aug-09 15:11 UTC. Time now 2015-Aug-31 02:32 UTC.
Position N 34°42' E 134°45'.
Warning: this ship's position is 21 days out of date.

Length 84 m; draft 4.7 m.

Type: Cargo ship. MMSI: 431500568.

Date/timePositionNaut miles runAvg speedWind from/ knotsBaromVisibWave heightAir tempDewpointWater temp
2015-Aug-09 15:11N 34°42' E 134°45'710.3
2015-Aug-09 14:32N 34°38' E 134°52'9 9.6
2015-Aug-09 13:33N 34°36' E 135°03'10 9.8
2015-Aug-09 12:33N 34°27' E 135°03'1111.4
2015-Aug-09 11:33N 34°15' E 134°60'1212.1
2015-Aug-09 10:32N 34°03' E 135°01'23510.2
2015-Aug-08 11:33N 35°05' E 139°36'1212.5
2015-Aug-08 10:33N 35°15' E 139°46'1111.1
2015-Aug-08 09:33N 35°26' E 139°45'5 4.8
2015-Aug-08 08:32N 35°31' E 139°45'0 0.0
2015-Aug-08 07:32N 35°31' E 139°45'0 0.0
2015-Aug-08 06:32N 35°31' E 139°45'0 0.0
2015-Aug-08 05:32N 35°31' E 139°45'0 0.0
2015-Aug-08 04:32N 35°31' E 139°45'0 0.0
2015-Aug-08 03:32N 35°31' E 139°45'0 0.0
2015-Aug-08 02:32N 35°31' E 139°45'0 0.0
2015-Aug-08 01:32N 35°31' E 139°45'0 0.0
2015-Aug-08 00:32N 35°31' E 139°45'0 0.0
2015-Aug-07 23:29N 35°31' E 139°45'0 0.0
2015-Aug-07 22:32N 35°31' E 139°45'0 0.0
2015-Aug-07 21:32N 35°31' E 139°45'0 0.0
2015-Aug-07 20:32N 35°31' E 139°45'0 0.0
2015-Aug-07 19:32N 35°31' E 139°45'0 0.0
2015-Aug-07 18:32N 35°31' E 139°45'0 0.0
2015-Aug-07 17:32N 35°31' E 139°45'0 0.0
2015-Aug-07 16:32N 35°31' E 139°45'0 0.0
2015-Aug-07 15:32N 35°31' E 139°45'0 0.0
2015-Aug-07 14:32N 35°31' E 139°45'0 0.0
2015-Aug-07 13:32N 35°31' E 139°45'0 0.0
2015-Aug-07 12:32N 35°31' E 139°45'0 0.0
2015-Aug-07 11:32N 35°31' E 139°45'0 0.0
2015-Aug-07 10:31N 35°31' E 139°45'0 0.0
2015-Aug-07 09:31N 35°31' E 139°45'0 0.0
2015-Aug-07 08:31N 35°31' E 139°45'0 0.0
2015-Aug-07 07:31N 35°31' E 139°45'0 0.0
2015-Aug-07 06:31N 35°31' E 139°45'0 0.0
2015-Aug-07 05:31N 35°31' E 139°45'0 0.0
2015-Aug-07 04:31N 35°31' E 139°45'0 0.0
2015-Aug-07 03:31N 35°31' E 139°45'0 0.0
2015-Aug-07 02:31N 35°31' E 139°45'0 0.0
2015-Aug-07 01:31N 35°31' E 139°45'2 2.3
2015-Aug-07 00:33N 35°30' E 139°48'6 5.8
2015-Aug-06 23:31N 35°24' E 139°45'0 0.1
2015-Aug-06 22:31N 35°24' E 139°45'0 0.0
2015-Aug-06 21:31N 35°24' E 139°45'0 0.1
2015-Aug-06 20:31N 35°24' E 139°45'0 0.0
2015-Aug-06 19:31N 35°24' E 139°45'0 0.0
2015-Aug-06 18:31N 35°24' E 139°45'0 0.0
2015-Aug-06 17:31N 35°24' E 139°45'0 0.0
2015-Aug-06 16:31N 35°24' E 139°45'0 0.0
2015-Aug-06 15:28N 35°24' E 139°45'0 0.3
2015-Aug-06 14:33N 35°24' E 139°45'1010.3
2015-Aug-06 13:33N 35°14' E 139°47'1212.4
2015-Aug-06 12:33N 35°02' E 139°44'10 9.0
2015-Aug-06 11:28N 34°53' E 139°49'1010.5
2015-Aug-06 10:30N 34°55' E 140°01'1112.0
2015-Aug-06 09:33N 35°01' E 140°13'1511.4
2015-Aug-06 08:13N 35°10' E 140°27'1910.7
2015-Aug-06 06:28N 35°25' E 140°42'1010.4
2015-Aug-06 05:28N 35°33' E 140°50'22 9.7
2015-Aug-06 03:11N 35°55' E 140°47'6 6.3
2015-Aug-06 02:11N 36°00' E 140°43'0 0.0
2015-Aug-06 01:22N 36°00' E 140°43'0 0.0
2015-Aug-06 00:30N 36°00' E 140°43'0 0.0
2015-Aug-05 23:27N 36°00' E 140°43'0 0.0
2015-Aug-05 22:25N 36°00' E 140°43'0 0.0
2015-Aug-05 21:21N 36°00' E 140°43'0 0.0
2015-Aug-05 20:33N 36°00' E 140°43'0 0.0
2015-Aug-05 19:29N 36°00' E 140°43'0 0.0
2015-Aug-05 17:07N 36°00' E 140°43'0 0.0
2015-Aug-05 16:34N 36°00' E 140°43'0 0.0
2015-Aug-05 15:24N 36°00' E 140°43'0 0.0
2015-Aug-05 14:32N 36°00' E 140°43'0 0.0
2015-Aug-05 11:06N 36°00' E 140°43'7 0.9
2015-Aug-05 03:23N 35°53' E 140°41'0 0.0
2015-Aug-04 23:13N 35°53' E 140°41'3 3.8
2015-Aug-04 22:33N 35°56' E 140°42'3 1.4
2015-Aug-04 20:08N 35°59' E 140°44'0 0.0
2015-Aug-04 19:23N 35°59' E 140°44'6 2.7
2015-Aug-04 17:06N 35°53' E 140°48'611.2
2015-Aug-04 16:33N 35°48' E 140°52'5710.8
2015-Aug-04 11:16N 35°01' E 140°13'1311.4
2015-Aug-04 10:09N 34°54' E 139°60'1211.1
2015-Aug-04 09:06N 34°55' E 139°46'611.4
2015-Aug-04 08:33N 35°00' E 139°42'1111.0
2015-Aug-04 07:33N 35°11' E 139°46'1010.1
2015-Aug-04 06:34N 35°21' E 139°42'4 3.7
2015-Aug-04 05:30N 35°24' E 139°40'0 0.0
2015-Aug-04 04:33N 35°24' E 139°40'0 0.0
2015-Aug-04 03:30N 35°24' E 139°40'0 0.0
2015-Aug-04 02:33N 35°24' E 139°40'0 0.0
2015-Aug-04 01:33N 35°24' E 139°40'0 0.0
2015-Aug-04 00:33N 35°24' E 139°40'0 0.0
2015-Aug-03 23:33N 35°24' E 139°40'0 0.2
2015-Aug-03 22:34N 35°24' E 139°40'4 3.4
2015-Aug-03 21:31N 35°22' E 139°44'0 0.0
2015-Aug-03 20:31N 35°22' E 139°44'0 0.0
2015-Aug-03 19:31N 35°22' E 139°44'0 0.1
2015-Aug-03 18:31N 35°22' E 139°44'0 0.0
2015-Aug-03 17:31N 35°22' E 139°44'0 0.1
2015-Aug-03 16:31N 35°22' E 139°44'0 0.0
2015-Aug-03 15:28N 35°22' E 139°44'0 0.1
2015-Aug-03 14:31N 35°22' E 139°44'0 0.1
2015-Aug-03 13:31N 35°22' E 139°44'0 0.1
2015-Aug-03 12:31N 35°22' E 139°44'0 0.0
2015-Aug-03 11:31N 35°22' E 139°44'0 0.0
2015-Aug-03 10:31N 35°22' E 139°44'0 0.1
2015-Aug-03 09:31N 35°22' E 139°44'0 0.0
2015-Aug-03 08:31N 35°22' E 139°44'0 0.0
2015-Aug-03 07:31N 35°22' E 139°44'0 0.0
2015-Aug-03 06:31N 35°22' E 139°44'0 0.0
2015-Aug-03 05:31N 35°22' E 139°44'0 0.0
2015-Aug-03 04:31N 35°22' E 139°44'0 0.1
2015-Aug-03 03:34N 35°22' E 139°44'0 0.0
2015-Aug-03 02:33N 35°22' E 139°44'0 0.0
2015-Aug-03 01:33N 35°22' E 139°44'0 0.0
2015-Aug-03 00:30N 35°22' E 139°44'0 0.0
2015-Aug-02 23:33N 35°22' E 139°44'0 0.0
2015-Aug-02 22:33N 35°22' E 139°44'0 0.1
2015-Aug-02 21:33N 35°22' E 139°44'0 0.0
2015-Aug-02 20:33N 35°22' E 139°44'0 0.0
2015-Aug-02 19:33N 35°22' E 139°44'0 0.0
2015-Aug-02 18:33N 35°22' E 139°44'0 0.0
2015-Aug-02 17:30N 35°22' E 139°44'0 0.1
2015-Aug-02 16:33N 35°22' E 139°44'0 0.1
2015-Aug-02 15:33N 35°22' E 139°44'0 0.0
2015-Aug-02 14:33N 35°22' E 139°44'0 0.0
2015-Aug-02 13:33N 35°22' E 139°44'0 0.1
2015-Aug-02 12:33N 35°22' E 139°44'0 0.0
2015-Aug-02 11:33N 35°22' E 139°44'0 0.0
2015-Aug-02 10:33N 35°22' E 139°44'0 0.1
2015-Aug-02 09:33N 35°22' E 139°44'0 0.0
2015-Aug-02 08:33N 35°22' E 139°44'0 0.0
2015-Aug-02 07:33N 35°22' E 139°44'0 0.0
2015-Aug-02 06:30N 35°22' E 139°44'0 0.1
2015-Aug-02 05:33N 35°22' E 139°44'0 0.0
2015-Aug-02 04:33N 35°22' E 139°44'0 0.1
2015-Aug-02 03:33N 35°22' E 139°44'0 0.0
2015-Aug-02 02:33N 35°22' E 139°44'0 0.1
2015-Aug-02 01:33N 35°22' E 139°44'0 0.0
2015-Aug-02 00:33N 35°22' E 139°44'0 0.0
2015-Aug-01 23:33N 35°22' E 139°44'0 0.0
2015-Aug-01 22:33N 35°22' E 139°44'0 0.1
2015-Aug-01 21:33N 35°22' E 139°44'0 0.0
2015-Aug-01 20:33N 35°22' E 139°44'0 0.0
2015-Aug-01 19:33N 35°22' E 139°44'0 0.0
2015-Aug-01 18:33N 35°22' E 139°44'0 0.0
2015-Aug-01 17:33N 35°22' E 139°44'8 7.9
2015-Aug-01 16:33N 35°15' E 139°47'1211.8
2015-Aug-01 15:33N 35°04' E 139°43'18 8.1
2015-Aug-01 13:21N 34°55' E 140°02'1011.9
2015-Aug-01 12:33N 35°00' E 140°12'1111.1
2015-Aug-01 11:33N 35°06' E 140°24'1110.9
2015-Aug-01 10:31N 35°15' E 140°32'1211.0
2015-Aug-01 09:27N 35°24' E 140°41'1010.9
2015-Aug-01 08:33N 35°32' E 140°48'1111.3
2015-Aug-01 07:33N 35°42' E 140°54'1210.6
2015-Aug-01 06:24N 35°53' E 140°48'6 3.0
2015-Aug-01 04:23N 35°58' E 140°44'3 0.4
2015-Jul-31 20:29N 35°56' E 140°41'4 4.1
2015-Jul-31 19:33N 35°59' E 140°42'0 0.3
2015-Jul-31 18:30N 35°60' E 140°42'0 0.0
2015-Jul-31 09:32N 35°60' E 140°42'0 0.0
2015-Jul-31 08:29N 35°60' E 140°42'0 0.0
2015-Jul-31 05:29N 35°60' E 140°42'0 0.0
2015-Jul-30 20:23N 35°60' E 140°42'0 0.0
2015-Jul-30 18:29N 35°60' E 140°42'8 8.9
2015-Jul-30 17:33N 36°07' E 140°47'1212.0
2015-Jul-30 16:34N 36°18' E 140°51'1211.8
2015-Jul-30 15:33N 36°30' E 140°56'  

Dump ship's entire track history